Time;durP1;ratioP1;P1;durP2;ratioP2;P2;SDS_P1;SDS_P2;PMS_P1;PMS_P2;Temp;Humidity;BMP_temperature;BMP_pressure;BME280_temperature;BME280_humidity;BME280_pressure;Samples;Min_cycle;Max_cycle;Signal;HPM_P1;HPM_P2
2021/03/10 00:00:39;;;;;;;0.00;0.00;;;;;;;;;;5042431;28;20183;-59
2021/03/10 00:03:08;;;;;;;0.10;0.10;;;;;;;;;;5048209;28;20195;-60
2021/03/10 00:05:36;;;;;;;0.77;0.37;;;;;;;;;;5039123;28;20183;-60
2021/03/10 00:08:04;;;;;;;0.00;0.00;;;;;;;;;;5038545;28;20202;-60
2021/03/10 00:10:33;;;;;;;0.10;0.10;;;;;;;;;;5038218;28;20206;-60
2021/03/10 00:13:00;;;;;;;0.90;0.57;;;;;;;;;;5038070;28;20527;-60
2021/03/10 00:15:27;;;;;;;0.00;0.00;;;;;;;;;;5042871;28;20178;-60
2021/03/10 00:17:55;;;;;;;0.20;0.20;;;;;;;;;;5038253;28;20187;-60
2021/03/10 00:20:24;;;;;;;20.63;0.70;;;;;;;;;;5039707;28;20183;-61
2021/03/10 00:22:55;;;;;;;0.10;0.10;;;;;;;;;;5038604;28;20176;-61
2021/03/10 00:25:23;;;;;;;0.57;0.57;;;;;;;;;;5037557;28;20183;-60
2021/03/10 00:27:50;;;;;;;0.60;0.20;;;;;;;;;;5038255;28;20201;-61
2021/03/10 00:30:22;;;;;;;0.10;0.10;;;;;;;;;;5035952;28;20198;-60
2021/03/10 00:32:50;;;;;;;1.30;1.30;;;;;;;;;;5035780;28;20297;-60
2021/03/10 00:35:21;;;;;;;0.10;0.10;;;;;;;;;;5042124;28;20272;-60
2021/03/10 00:37:49;;;;;;;0.00;0.00;;;;;;;;;;5039906;28;20206;-61
2021/03/10 00:40:17;;;;;;;8.43;1.43;;;;;;;;;;5039739;28;20183;-60
2021/03/10 00:42:47;;;;;;;0.00;0.00;;;;;;;;;;5041201;28;20184;-60
2021/03/10 00:45:15;;;;;;;0.00;0.00;;;;;;;;;;5036292;28;20266;-60
2021/03/10 00:47:42;;;;;;;0.00;0.00;;;;;;;;;;5038883;28;20230;-60
2021/03/10 00:50:12;;;;;;;4.70;0.53;;;;;;;;;;5038113;28;20333;-60
2021/03/10 00:52:44;;;;;;;19.83;1.03;;;;;;;;;;5035253;28;20804;-60
2021/03/10 00:55:10;;;;;;;0.10;0.10;;;;;;;;;;5037240;28;20825;-61
2021/03/10 00:57:39;;;;;;;0.40;0.40;;;;;;;;;;5037689;28;20186;-60
2021/03/10 01:00:07;;;;;;;0.10;0.10;;;;;;;;;;5037529;28;21059;-60
2021/03/10 01:02:35;;;;;;;0.10;0.10;;;;;;;;;;5038312;28;20222;-60
2021/03/10 01:05:02;;;;;;;0.30;0.30;;;;;;;;;;5043655;28;20190;-60
2021/03/10 01:07:28;;;;;;;0.10;0.10;;;;;;;;;;5037841;28;20391;-61
2021/03/10 01:09:55;;;;;;;0.07;0.07;;;;;;;;;;5042179;28;20301;-60
2021/03/10 01:12:22;;;;;;;0.00;0.00;;;;;;;;;;5041726;28;20825;-61
2021/03/10 01:14:48;;;;;;;1.00;0.63;;;;;;;;;;5041126;28;20186;-60
2021/03/10 01:17:16;;;;;;;1.50;0.50;;;;;;;;;;5036197;28;20283;-61
2021/03/10 01:19:43;;;;;;;0.37;0.20;;;;;;;;;;5036870;28;20210;-60
2021/03/10 01:22:10;;;;;;;0.07;0.07;;;;;;;;;;5035431;28;20197;-60
2021/03/10 01:24:40;;;;;;;0.20;0.20;;;;;;;;;;5039992;28;20193;-61
2021/03/10 01:27:06;;;;;;;0.10;0.10;;;;;;;;;;5038156;28;20224;-60
2021/03/10 01:29:33;;;;;;;0.20;0.20;;;;;;;;;;5039714;28;20467;-60
2021/03/10 01:32:05;;;;;;;0.97;0.87;;;;;;;;;;5039295;28;20182;-60
2021/03/10 01:34:33;;;;;;;1.90;1.80;;;;;;;;;;5037122;28;20264;-60
2021/03/10 01:37:01;;;;;;;2.23;0.40;;;;;;;;;;5040756;28;20197;-61
2021/03/10 01:39:30;;;;;;;0.10;0.10;;;;;;;;;;5041935;28;20188;-60
2021/03/10 01:42:02;;;;;;;1.20;1.10;;;;;;;;;;5035520;28;20185;-60
2021/03/10 01:44:34;;;;;;;0.30;0.30;;;;;;;;;;5034188;28;20198;-60
2021/03/10 01:47:03;;;;;;;0.10;0.10;;;;;;;;;;5040444;28;21003;-60
2021/03/10 01:49:29;;;;;;;0.33;0.33;;;;;;;;;;5035909;28;20229;-60
2021/03/10 01:51:56;;;;;;;1.43;0.20;;;;;;;;;;5035499;28;20231;-60
2021/03/10 01:54:22;;;;;;;0.10;0.10;;;;;;;;;;5032172;28;20306;-60
2021/03/10 01:56:51;;;;;;;0.30;0.30;;;;;;;;;;5035867;28;20183;-60
2021/03/10 01:59:17;;;;;;;0.10;0.10;;;;;;;;;;5036339;28;20200;-60
2021/03/10 02:01:44;;;;;;;0.00;0.00;;;;;;;;;;5037585;28;20784;-60
2021/03/10 02:04:11;;;;;;;0.00;0.00;;;;;;;;;;5036343;28;20184;-60
2021/03/10 02:06:37;;;;;;;1.03;0.43;;;;;;;;;;5039082;28;20198;-60
2021/03/10 02:09:10;;;;;;;0.00;0.00;;;;;;;;;;5040293;28;20203;-60
2021/03/10 02:11:42;;;;;;;0.00;0.00;;;;;;;;;;5044729;28;20184;-60
2021/03/10 02:14:24;;;;;;;1.90;0.50;;;;;;;;;;5038741;28;20893;-60
2021/03/10 02:16:55;;;;;;;0.20;0.20;;;;;;;;;;5036036;28;20245;-60
2021/03/10 02:19:31;;;;;;;0.10;0.10;;;;;;;;;;5036235;28;20256;-61
2021/03/10 02:22:16;;;;;;;2.63;0.57;;;;;;;;;;5042894;28;20237;-60
2021/03/10 02:24:52;;;;;;;0.20;0.20;;;;;;;;;;5037279;28;20182;-60
2021/03/10 02:27:31;;;;;;;0.50;0.50;;;;;;;;;;5033686;28;20226;-60
2021/03/10 02:30:09;;;;;;;0.10;0.10;;;;;;;;;;5036479;28;20310;-60
2021/03/10 02:32:40;;;;;;;0.00;0.00;;;;;;;;;;5036358;28;20189;-60
2021/03/10 02:35:09;;;;;;;1.53;0.83;;;;;;;;;;5038390;28;20203;-60
2021/03/10 02:37:38;;;;;;;0.17;0.17;;;;;;;;;;5036904;28;20182;-60
2021/03/10 02:40:09;;;;;;;0.10;0.10;;;;;;;;;;5032994;28;20189;-60
2021/03/10 02:42:36;;;;;;;5.50;0.63;;;;;;;;;;5038509;28;20183;-60
2021/03/10 02:45:04;;;;;;;1.70;1.60;;;;;;;;;;5035998;28;20214;-60
2021/03/10 02:47:32;;;;;;;0.17;0.17;;;;;;;;;;5036030;28;20218;-60
2021/03/10 02:49:58;;;;;;;0.00;0.00;;;;;;;;;;5041014;28;20199;-60
2021/03/10 02:52:25;;;;;;;0.00;0.00;;;;;;;;;;5040768;28;20183;-60
2021/03/10 02:54:55;;;;;;;0.07;0.07;;;;;;;;;;5038221;28;20928;-60
2021/03/10 02:57:24;;;;;;;0.07;0.07;;;;;;;;;;5040988;28;20655;-60
2021/03/10 02:59:53;;;;;;;1.50;0.57;;;;;;;;;;5040691;28;20199;-60
2021/03/10 03:02:21;;;;;;;0.50;0.20;;;;;;;;;;5039670;28;20198;-60
2021/03/10 03:04:48;;;;;;;0.20;0.20;;;;;;;;;;5040020;28;20315;-60
2021/03/10 03:07:14;;;;;;;0.10;0.10;;;;;;;;;;5040468;28;20200;-60
2021/03/10 03:09:41;;;;;;;0.27;0.27;;;;;;;;;;5038911;28;20213;-61
2021/03/10 03:12:08;;;;;;;0.23;0.23;;;;;;;;;;5042278;28;20802;-60
2021/03/10 03:14:36;;;;;;;0.10;0.10;;;;;;;;;;5039013;28;20185;-60
2021/03/10 03:17:04;;;;;;;0.00;0.00;;;;;;;;;;5038895;28;20178;-60
2021/03/10 03:19:31;;;;;;;0.10;0.10;;;;;;;;;;5039949;28;20186;-61
2021/03/10 03:22:01;;;;;;;0.50;0.37;;;;;;;;;;5040215;28;20771;-60
2021/03/10 03:24:37;;;;;;;0.87;0.50;;;;;;;;;;5039157;28;20179;-59
2021/03/10 03:27:09;;;;;;;0.27;0.27;;;;;;;;;;5040343;28;20664;-60
2021/03/10 03:29:37;;;;;;;1.17;0.50;;;;;;;;;;5038390;28;20224;-60
2021/03/10 03:32:11;;;;;;;0.00;0.00;;;;;;;;;;5036428;28;22384;-60
2021/03/10 03:34:38;;;;;;;0.20;0.20;;;;;;;;;;5043232;28;20177;-60
2021/03/10 03:37:13;;;;;;;0.60;0.60;;;;;;;;;;5038979;28;20194;-61
2021/03/10 03:39:40;;;;;;;2.43;0.50;;;;;;;;;;5039363;28;22049;-60
2021/03/10 03:42:13;;;;;;;4.80;1.37;;;;;;;;;;5034774;28;20197;-61
2021/03/10 03:44:42;;;;;;;0.83;0.63;;;;;;;;;;5038793;28;20171;-60
2021/03/10 03:47:08;;;;;;;0.10;0.10;;;;;;;;;;5039232;28;20746;-60
2021/03/10 03:49:36;;;;;;;8.60;0.53;;;;;;;;;;5042124;28;20721;-60
2021/03/10 03:52:02;;;;;;;0.00;0.00;;;;;;;;;;5038136;28;20183;-61
2021/03/10 03:54:31;;;;;;;0.10;0.10;;;;;;;;;;5036727;28;20202;-58
2021/03/10 03:56:59;;;;;;;7.90;0.57;;;;;;;;;;5038119;28;20183;-59
2021/03/10 03:59:28;;;;;;;0.83;0.83;;;;;;;;;;5032741;28;20205;-58
2021/03/10 04:01:57;;;;;;;0.30;0.10;;;;;;;;;;5035914;28;20264;-58
2021/03/10 04:04:23;;;;;;;0.03;0.03;;;;;;;;;;5037231;28;20213;-58
2021/03/10 04:06:50;;;;;;;0.27;0.27;;;;;;;;;;5035898;28;20204;-59
2021/03/10 04:09:17;;;;;;;0.00;0.00;;;;;;;;;;5036960;28;20945;-59
2021/03/10 04:11:44;;;;;;;1.90;0.47;;;;;;;;;;5035770;28;20275;-60
2021/03/10 04:14:11;;;;;;;0.37;0.37;;;;;;;;;;5037773;28;20184;-60
2021/03/10 04:16:42;;;;;;;1.07;0.70;;;;;;;;;;5036795;28;20210;-59
2021/03/10 04:19:14;;;;;;;0.10;0.10;;;;;;;;;;5036685;28;20182;-59
2021/03/10 04:21:40;;;;;;;5.40;1.03;;;;;;;;;;5033902;28;20940;-59
2021/03/10 04:24:07;;;;;;;1.07;0.30;;;;;;;;;;5036112;28;20260;-59
2021/03/10 04:26:36;;;;;;;7.03;1.80;;;;;;;;;;5035677;28;20300;-59
2021/03/10 04:29:02;;;;;;;0.00;0.00;;;;;;;;;;5037749;28;20254;-59
2021/03/10 04:31:29;;;;;;;0.20;0.20;;;;;;;;;;5037737;28;20209;-59
2021/03/10 04:33:55;;;;;;;0.20;0.20;;;;;;;;;;5037963;28;20188;-59
2021/03/10 04:36:24;;;;;;;0.90;0.90;;;;;;;;;;5038028;28;20187;-59
2021/03/10 04:38:51;;;;;;;1.13;0.40;;;;;;;;;;5035440;28;20198;-60
2021/03/10 04:41:21;;;;;;;0.10;0.10;;;;;;;;;;5035904;28;20206;-59
2021/03/10 04:43:52;;;;;;;0.33;0.30;;;;;;;;;;5036668;28;20274;-60
2021/03/10 04:46:19;;;;;;;0.00;0.00;;;;;;;;;;5038064;28;20243;-60
2021/03/10 04:48:56;;;;;;;3.13;1.70;;;;;;;;;;5035468;28;20245;-59
2021/03/10 04:51:27;;;;;;;0.10;0.10;;;;;;;;;;5037201;28;20852;-60
2021/03/10 04:53:53;;;;;;;0.10;0.10;;;;;;;;;;5036157;28;20186;-60
2021/03/10 04:56:20;;;;;;;0.43;0.10;;;;;;;;;;5039213;28;20264;-59
2021/03/10 04:58:46;;;;;;;6.80;0.33;;;;;;;;;;5034996;28;20183;-59
2021/03/10 05:01:13;;;;;;;0.10;0.10;;;;;;;;;;5034495;28;21195;-59
2021/03/10 05:03:39;;;;;;;0.20;0.20;;;;;;;;;;5033792;28;20195;-59
2021/03/10 05:06:06;;;;;;;0.00;0.00;;;;;;;;;;5035095;28;20190;-59
2021/03/10 05:08:32;;;;;;;0.10;0.10;;;;;;;;;;5035320;28;20493;-60
2021/03/10 05:10:59;;;;;;;0.50;0.30;;;;;;;;;;5032061;28;20217;-59
2021/03/10 05:13:26;;;;;;;0.10;0.10;;;;;;;;;;5031861;28;20217;-59
2021/03/10 05:15:54;;;;;;;0.00;0.00;;;;;;;;;;5033513;28;20189;-59
2021/03/10 05:18:30;;;;;;;0.00;0.00;;;;;;;;;;5032346;28;20193;-59
2021/03/10 05:20:56;;;;;;;0.10;0.10;;;;;;;;;;5032483;28;20570;-59
2021/03/10 05:23:23;;;;;;;0.10;0.10;;;;;;;;;;5036461;28;20191;-59
2021/03/10 05:25:52;;;;;;;0.03;0.03;;;;;;;;;;5037822;28;20306;-59
2021/03/10 05:28:18;;;;;;;0.00;0.00;;;;;;;;;;5037427;28;20989;-59
2021/03/10 05:30:47;;;;;;;0.20;0.20;;;;;;;;;;5038185;28;20657;-59
2021/03/10 05:33:14;;;;;;;2.10;0.27;;;;;;;;;;5037879;28;20197;-58
2021/03/10 05:35:40;;;;;;;1.50;0.77;;;;;;;;;;5036593;28;20190;-59
2021/03/10 05:38:07;;;;;;;0.00;0.00;;;;;;;;;;5031322;28;20186;-59
2021/03/10 05:40:39;;;;;;;0.00;0.00;;;;;;;;;;5031404;28;20196;-59
2021/03/10 05:43:06;;;;;;;0.93;0.93;;;;;;;;;;5036191;28;20914;-59
2021/03/10 05:45:33;;;;;;;0.00;0.00;;;;;;;;;;5039153;28;20183;-59
2021/03/10 05:48:00;;;;;;;2.80;0.47;;;;;;;;;;5037473;28;20295;-59
2021/03/10 05:50:26;;;;;;;0.10;0.00;;;;;;;;;;5041120;28;20189;-58
2021/03/10 05:52:54;;;;;;;0.00;0.00;;;;;;;;;;5039831;28;20210;-59
2021/03/10 05:55:21;;;;;;;0.40;0.30;;;;;;;;;;5035815;28;20247;-59
2021/03/10 05:57:48;;;;;;;0.10;0.10;;;;;;;;;;5036204;28;20889;-59
2021/03/10 06:00:15;;;;;;;1.23;1.20;;;;;;;;;;5034094;28;20183;-59
2021/03/10 06:02:42;;;;;;;0.50;0.50;;;;;;;;;;5030798;28;20283;-59
2021/03/10 06:05:25;;;;;;;2.60;0.10;;;;;;;;;;5034153;28;20175;-59
2021/03/10 06:08:01;;;;;;;2.40;0.57;;;;;;;;;;5033935;28;20195;-59
2021/03/10 06:10:38;;;;;;;0.00;0.00;;;;;;;;;;5035123;28;20753;-59
2021/03/10 06:13:05;;;;;;;0.73;0.73;;;;;;;;;;5035465;28;20186;-59
2021/03/10 06:15:41;;;;;;;0.00;0.00;;;;;;;;;;5032924;28;20747;-59
2021/03/10 06:18:07;;;;;;;0.10;0.10;;;;;;;;;;5034076;28;20173;-59
2021/03/10 06:20:34;;;;;;;0.27;0.20;;;;;;;;;;5032992;28;20181;-59
2021/03/10 06:23:01;;;;;;;0.00;0.00;;;;;;;;;;5035699;28;20633;-59
2021/03/10 06:25:38;;;;;;;0.43;0.40;;;;;;;;;;5032688;28;20181;-59
2021/03/10 06:28:05;;;;;;;0.50;0.50;;;;;;;;;;5031016;28;20214;-59
2021/03/10 06:30:41;;;;;;;0.97;0.97;;;;;;;;;;5035397;28;20189;-59
2021/03/10 06:33:09;;;;;;;2.10;0.73;;;;;;;;;;5037036;28;20178;-59
2021/03/10 13:48:40;;;;;;;0.10;0.10;;;;;;;;;;5057710;27;20600;-59
2021/03/10 13:51:07;;;;;;;0.00;0.00;;;;;;;;;;5055090;28;20353;-59
2021/03/10 13:53:33;;;;;;;0.00;0.00;;;;;;;;;;5054957;28;20643;-59
2021/03/10 13:56:00;;;;;;;6.00;1.23;;;;;;;;;;5054985;28;20179;-59
2021/03/10 13:58:27;;;;;;;1.10;0.30;;;;;;;;;;5057023;28;20194;-59
2021/03/10 14:00:53;;;;;;;0.00;0.00;;;;;;;;;;5056456;28;20272;-59
2021/03/10 14:03:20;;;;;;;1.80;0.73;;;;;;;;;;5056818;28;20428;-59
2021/03/10 14:05:49;;;;;;;0.03;0.03;;;;;;;;;;5055585;28;20197;-59
2021/03/10 14:08:15;;;;;;;6.50;0.70;;;;;;;;;;5056885;28;20206;-60
2021/03/10 14:10:42;;;;;;;3.20;1.40;;;;;;;;;;5055803;28;20922;-59
2021/03/10 14:13:09;;;;;;;2.00;0.20;;;;;;;;;;5056438;28;20205;-60
2021/03/10 14:15:35;;;;;;;0.63;0.20;;;;;;;;;;5055880;28;20289;-60
2021/03/10 14:18:02;;;;;;;0.07;0.07;;;;;;;;;;5054965;28;20198;-59
2021/03/10 14:20:29;;;;;;;0.57;0.57;;;;;;;;;;5054498;28;21090;-60
2021/03/10 14:22:56;;;;;;;0.10;0.10;;;;;;;;;;5055301;28;20187;-59
2021/03/10 14:25:23;;;;;;;0.17;0.17;;;;;;;;;;5055282;28;20226;-60
2021/03/10 14:27:49;;;;;;;0.20;0.20;;;;;;;;;;5054050;28;20211;-59
2021/03/10 14:30:16;;;;;;;1.03;0.93;;;;;;;;;;5052225;28;20796;-59
2021/03/10 14:32:43;;;;;;;1.90;0.67;;;;;;;;;;5053892;28;20764;-59
2021/03/10 14:35:11;;;;;;;0.00;0.00;;;;;;;;;;5054132;28;20723;-59
2021/03/10 14:37:38;;;;;;;0.00;0.00;;;;;;;;;;5054805;28;20183;-59
2021/03/10 14:40:05;;;;;;;5.23;1.10;;;;;;;;;;5054613;28;20183;-59
2021/03/10 14:42:32;;;;;;;0.00;0.00;;;;;;;;;;5055299;28;20212;-59
2021/03/10 14:44:59;;;;;;;0.00;0.00;;;;;;;;;;5056047;28;20190;-59
2021/03/10 14:47:28;;;;;;;0.00;0.00;;;;;;;;;;5054771;28;20773;-59
2021/03/10 14:49:55;;;;;;;0.00;0.00;;;;;;;;;;5054579;28;21024;-59
2021/03/10 14:52:22;;;;;;;0.00;0.00;;;;;;;;;;5055780;28;20219;-59
2021/03/10 14:54:49;;;;;;;0.20;0.20;;;;;;;;;;5055947;28;20192;-61
2021/03/10 14:57:16;;;;;;;0.00;0.00;;;;;;;;;;5054833;28;20606;-60
2021/03/10 14:59:42;;;;;;;0.97;0.93;;;;;;;;;;5044108;28;20278;-59
2021/03/10 15:02:09;;;;;;;3.60;0.37;;;;;;;;;;5042282;28;20417;-60
2021/03/10 15:04:35;;;;;;;3.60;0.70;;;;;;;;;;5041678;28;20193;-59
2021/03/10 15:07:02;;;;;;;1.03;0.10;;;;;;;;;;5041069;28;20212;-59
2021/03/10 15:09:28;;;;;;;1.03;0.20;;;;;;;;;;5041939;28;20184;-59
2021/03/10 15:11:55;;;;;;;0.83;0.37;;;;;;;;;;5041921;28;20180;-59
2021/03/10 15:14:21;;;;;;;0.00;0.00;;;;;;;;;;5041065;28;20338;-59
2021/03/10 15:16:48;;;;;;;0.00;0.00;;;;;;;;;;5042251;28;20186;-59
2021/03/10 15:19:15;;;;;;;0.13;0.10;;;;;;;;;;5041628;28;20189;-59
2021/03/10 15:21:41;;;;;;;0.23;0.23;;;;;;;;;;5041657;28;20180;-60
2021/03/10 15:24:08;;;;;;;0.47;0.40;;;;;;;;;;5041175;28;20188;-59
2021/03/10 15:26:35;;;;;;;0.67;0.30;;;;;;;;;;5041496;28;20293;-59
2021/03/10 15:29:01;;;;;;;0.00;0.00;;;;;;;;;;5042409;28;20193;-59
2021/03/10 15:31:28;;;;;;;1.57;1.47;;;;;;;;;;5040976;28;20778;-60
2021/03/10 15:33:54;;;;;;;2.87;1.50;;;;;;;;;;5041372;28;20182;-59
2021/03/10 15:36:21;;;;;;;0.00;0.00;;;;;;;;;;5041507;28;20184;-59
2021/03/10 15:38:47;;;;;;;1.90;0.83;;;;;;;;;;5042078;28;20279;-59
2021/03/10 15:41:14;;;;;;;4.10;1.90;;;;;;;;;;5041664;28;20186;-59
2021/03/10 15:43:40;;;;;;;0.00;0.00;;;;;;;;;;5040288;28;20193;-59
2021/03/10 15:46:07;;;;;;;1.03;0.40;;;;;;;;;;5039668;28;20214;-59
2021/03/10 15:48:34;;;;;;;0.00;0.00;;;;;;;;;;5040960;28;20262;-59
2021/03/10 15:51:00;;;;;;;0.90;0.00;;;;;;;;;;5041411;28;20181;-60
2021/03/10 15:53:27;;;;;;;0.00;0.00;;;;;;;;;;5041929;28;20183;-60
2021/03/10 15:55:53;;;;;;;0.00;0.00;;;;;;;;;;5041522;28;20192;-59
2021/03/10 15:58:19;;;;;;;1.83;0.53;;;;;;;;;;5040735;28;20191;-59
2021/03/10 16:00:46;;;;;;;0.00;0.00;;;;;;;;;;5041009;28;20197;-60
2021/03/10 16:03:12;;;;;;;0.20;0.20;;;;;;;;;;5040655;28;20194;-59
2021/03/10 16:05:39;;;;;;;0.40;0.00;;;;;;;;;;5040270;28;20558;-59
2021/03/10 16:08:06;;;;;;;0.30;0.17;;;;;;;;;;5035122;28;20216;-60
2021/03/10 16:10:34;;;;;;;0.00;0.00;;;;;;;;;;5040212;28;20529;-59
2021/03/10 16:13:04;;;;;;;0.43;0.30;;;;;;;;;;5041001;28;20596;-59
2021/03/10 16:15:31;;;;;;;0.47;0.47;;;;;;;;;;5041822;28;20291;-59
2021/03/10 16:17:58;;;;;;;6.33;1.30;;;;;;;;;;5039876;28;20219;-58
2021/03/10 16:20:25;;;;;;;4.47;0.40;;;;;;;;;;5040909;28;20252;-59
2021/03/10 16:22:51;;;;;;;0.57;0.53;;;;;;;;;;5035558;28;20184;-59
2021/03/10 16:25:18;;;;;;;0.77;0.27;;;;;;;;;;5037732;28;20268;-59
2021/03/10 16:27:46;;;;;;;0.00;0.00;;;;;;;;;;5039361;28;20203;-59
2021/03/10 16:30:13;;;;;;;1.23;0.23;;;;;;;;;;5036014;28;20237;-59
2021/03/10 16:32:40;;;;;;;1.23;0.90;;;;;;;;;;5038779;28;20177;-59
2021/03/10 16:35:06;;;;;;;1.23;0.73;;;;;;;;;;5040662;28;20185;-59
2021/03/10 16:37:37;;;;;;;0.07;0.07;;;;;;;;;;5040245;28;20340;-59
2021/03/10 16:40:04;;;;;;;0.30;0.30;;;;;;;;;;5039804;28;21004;-59
2021/03/10 16:42:31;;;;;;;0.53;0.33;;;;;;;;;;5038996;28;20183;-59
2021/03/10 16:44:58;;;;;;;0.10;0.10;;;;;;;;;;5038986;28;20610;-58
2021/03/10 16:47:24;;;;;;;0.20;0.20;;;;;;;;;;5040036;28;20324;-59
2021/03/10 16:49:51;;;;;;;2.90;1.33;;;;;;;;;;5040243;28;20278;-60
2021/03/10 16:52:18;;;;;;;1.53;0.40;;;;;;;;;;5040753;28;20215;-59
2021/03/10 16:54:45;;;;;;;2.83;0.43;;;;;;;;;;5040294;28;20183;-59
2021/03/10 16:57:12;;;;;;;2.23;0.20;;;;;;;;;;5039490;28;20202;-59
2021/03/10 16:59:38;;;;;;;0.00;0.00;;;;;;;;;;5039634;28;20285;-59
2021/03/10 17:02:05;;;;;;;0.00;0.00;;;;;;;;;;5039862;28;20272;-59
2021/03/10 17:04:32;;;;;;;1.40;0.20;;;;;;;;;;5040246;28;20190;-59
2021/03/10 17:06:59;;;;;;;0.00;0.00;;;;;;;;;;5040418;28;20694;-59
2021/03/10 17:09:25;;;;;;;0.00;0.00;;;;;;;;;;5040114;28;20186;-60
2021/03/10 17:11:52;;;;;;;2.33;0.33;;;;;;;;;;5039645;28;20199;-60
2021/03/10 17:14:19;;;;;;;0.10;0.10;;;;;;;;;;5038662;28;20187;-59
2021/03/10 17:16:47;;;;;;;12.40;1.80;;;;;;;;;;5039938;28;20215;-59
2021/03/10 17:19:13;;;;;;;0.60;0.60;;;;;;;;;;5039482;28;20660;-59
2021/03/10 17:21:40;;;;;;;0.00;0.00;;;;;;;;;;5039151;28;20626;-60
2021/03/10 17:24:07;;;;;;;2.47;1.40;;;;;;;;;;5039634;28;20176;-58
2021/03/10 17:26:33;;;;;;;1.60;1.50;;;;;;;;;;5039492;28;20203;-59
2021/03/10 17:29:00;;;;;;;0.37;0.10;;;;;;;;;;5038443;28;20187;-58
2021/03/10 17:31:26;;;;;;;2.73;0.50;;;;;;;;;;5038922;28;20188;-59
2021/03/10 17:33:53;;;;;;;0.00;0.00;;;;;;;;;;5039526;28;20398;-58
2021/03/10 17:36:19;;;;;;;1.13;0.97;;;;;;;;;;5039087;28;20196;-59
2021/03/10 17:38:47;;;;;;;1.20;0.30;;;;;;;;;;5039233;28;20241;-59
2021/03/10 17:41:13;;;;;;;3.67;1.00;;;;;;;;;;5039001;28;20176;-58
2021/03/10 17:43:40;;;;;;;4.43;0.57;;;;;;;;;;5038116;28;21120;-59
2021/03/10 17:46:09;;;;;;;2.37;0.83;;;;;;;;;;5036666;28;20799;-58
2021/03/10 17:48:35;;;;;;;0.50;0.40;;;;;;;;;;5036252;28;20247;-59
2021/03/10 17:51:02;;;;;;;0.63;0.30;;;;;;;;;;5039677;28;20194;-59
2021/03/10 17:53:29;;;;;;;0.10;0.10;;;;;;;;;;5039159;28;20189;-59
2021/03/10 17:55:55;;;;;;;5.20;0.77;;;;;;;;;;5037659;28;20542;-60
2021/03/10 17:58:22;;;;;;;2.53;1.33;;;;;;;;;;5038725;28;20192;-59
2021/03/10 18:00:48;;;;;;;3.27;1.00;;;;;;;;;;5039423;28;20226;-59
2021/03/10 18:03:15;;;;;;;0.00;0.00;;;;;;;;;;5039583;28;20197;-59
2021/03/10 18:05:42;;;;;;;0.10;0.10;;;;;;;;;;5039221;28;20183;-58
2021/03/10 18:08:08;;;;;;;0.83;0.20;;;;;;;;;;5038272;28;20209;-58
2021/03/10 18:10:35;;;;;;;0.53;0.53;;;;;;;;;;5038789;28;20205;-59
2021/03/10 18:13:01;;;;;;;7.00;1.27;;;;;;;;;;5038624;28;20194;-59
2021/03/10 18:15:28;;;;;;;4.07;0.40;;;;;;;;;;5039442;28;20590;-59
2021/03/10 18:17:55;;;;;;;3.37;0.97;;;;;;;;;;5038819;28;20200;-58
2021/03/10 18:20:22;;;;;;;0.77;0.10;;;;;;;;;;5039446;28;20187;-58
2021/03/10 18:22:49;;;;;;;0.57;0.27;;;;;;;;;;5038792;28;20191;-58
2021/03/10 18:25:15;;;;;;;0.87;0.37;;;;;;;;;;5038022;28;20764;-58
2021/03/10 18:27:42;;;;;;;0.10;0.10;;;;;;;;;;5038427;28;20284;-59
2021/03/10 18:30:09;;;;;;;1.80;1.23;;;;;;;;;;5039779;28;20198;-59
2021/03/10 18:32:37;;;;;;;4.37;0.13;;;;;;;;;;5037973;28;20186;-59
2021/03/10 18:35:04;;;;;;;32.17;1.90;;;;;;;;;;5042890;28;20256;-59
2021/03/10 18:37:30;;;;;;;5.00;0.30;;;;;;;;;;5042583;28;20273;-59
2021/03/10 18:39:57;;;;;;;0.00;0.00;;;;;;;;;;5041876;28;20197;-60
2021/03/10 18:42:23;;;;;;;0.73;0.37;;;;;;;;;;5040882;28;20646;-59
2021/03/10 18:44:50;;;;;;;0.20;0.00;;;;;;;;;;5042194;28;20191;-59
2021/03/10 18:47:16;;;;;;;7.33;0.73;;;;;;;;;;5041916;28;20294;-58
2021/03/10 18:49:43;;;;;;;1.67;0.57;;;;;;;;;;5041685;28;20192;-59
2021/03/10 18:52:09;;;;;;;0.00;0.00;;;;;;;;;;5041049;28;20223;-59
2021/03/10 18:54:36;;;;;;;5.07;1.13;;;;;;;;;;5040593;28;20271;-59
2021/03/10 18:57:03;;;;;;;0.00;0.00;;;;;;;;;;5040376;28;20188;-60
2021/03/10 18:59:29;;;;;;;0.03;0.03;;;;;;;;;;5040159;28;20192;-59
2021/03/10 19:01:56;;;;;;;4.53;0.83;;;;;;;;;;5041250;28;20195;-59
2021/03/10 19:04:22;;;;;;;2.83;0.40;;;;;;;;;;5040472;28;20202;-60
2021/03/10 19:06:49;;;;;;;0.00;0.00;;;;;;;;;;5039774;28;20858;-59
2021/03/10 19:09:15;;;;;;;1.80;1.23;;;;;;;;;;5040964;28;20182;-59
2021/03/10 19:11:42;;;;;;;0.00;0.00;;;;;;;;;;5041506;28;20196;-59
2021/03/10 19:14:08;;;;;;;4.00;0.63;;;;;;;;;;5041191;28;20188;-59
2021/03/10 19:16:35;;;;;;;5.20;2.57;;;;;;;;;;5039711;28;20191;-59
2021/03/10 19:19:02;;;;;;;0.20;0.20;;;;;;;;;;5039053;28;20184;-60
2021/03/10 19:21:28;;;;;;;1.80;0.53;;;;;;;;;;5034629;28;20452;-60
2021/03/10 19:23:55;;;;;;;0.20;0.10;;;;;;;;;;5036400;28;20218;-60
2021/03/10 19:26:21;;;;;;;0.00;0.00;;;;;;;;;;5040302;28;20191;-60
2021/03/10 19:28:48;;;;;;;3.37;0.20;;;;;;;;;;5041435;28;20296;-61
2021/03/10 19:31:14;;;;;;;0.23;0.23;;;;;;;;;;5041292;28;20183;-60
2021/03/10 19:33:41;;;;;;;0.30;0.30;;;;;;;;;;5041497;28;20183;-60
2021/03/10 19:36:07;;;;;;;2.03;0.73;;;;;;;;;;5041343;28;20191;-60
2021/03/10 19:38:34;;;;;;;5.37;0.90;;;;;;;;;;5041607;28;20735;-60
2021/03/10 19:41:01;;;;;;;1.07;0.80;;;;;;;;;;5041493;28;20758;-59
2021/03/10 19:43:28;;;;;;;0.00;0.00;;;;;;;;;;5041829;28;20349;-60
2021/03/10 19:45:54;;;;;;;1.93;0.27;;;;;;;;;;5041205;28;20195;-60
2021/03/10 19:48:21;;;;;;;0.00;0.00;;;;;;;;;;5041415;28;20250;-59
2021/03/10 19:50:47;;;;;;;17.50;0.93;;;;;;;;;;5041287;28;20190;-60
2021/03/10 19:53:14;;;;;;;0.73;0.33;;;;;;;;;;5040547;28;20656;-60
2021/03/10 19:55:41;;;;;;;1.90;0.87;;;;;;;;;;5040607;28;20203;-60
2021/03/10 19:58:08;;;;;;;0.10;0.10;;;;;;;;;;5041200;28;20670;-60
2021/03/10 20:00:34;;;;;;;4.57;1.27;;;;;;;;;;5041169;28;20196;-59
2021/03/10 20:03:01;;;;;;;0.20;0.20;;;;;;;;;;5040980;28;20881;-61
2021/03/10 20:05:27;;;;;;;0.20;0.20;;;;;;;;;;5040950;28;20189;-59
2021/03/10 20:07:54;;;;;;;0.63;0.20;;;;;;;;;;5039595;28;20215;-60
2021/03/10 20:10:23;;;;;;;0.00;0.00;;;;;;;;;;5039795;28;20647;-60
2021/03/10 20:12:49;;;;;;;0.10;0.10;;;;;;;;;;5041688;28;20650;-60
2021/03/10 20:15:17;;;;;;;0.93;0.17;;;;;;;;;;5041259;28;20573;-60
2021/03/10 20:17:44;;;;;;;0.33;0.33;;;;;;;;;;5041022;28;20877;-60
2021/03/10 20:20:12;;;;;;;0.00;0.00;;;;;;;;;;5040315;28;20192;-60
2021/03/10 20:22:39;;;;;;;0.03;0.03;;;;;;;;;;5040172;28;20192;-60
2021/03/10 20:25:06;;;;;;;0.00;0.00;;;;;;;;;;5040741;28;20226;-59
2021/03/10 20:27:33;;;;;;;0.00;0.00;;;;;;;;;;5040213;28;20395;-59
2021/03/10 20:30:00;;;;;;;0.00;0.00;;;;;;;;;;5039927;28;20188;-60
2021/03/10 20:32:26;;;;;;;0.30;0.30;;;;;;;;;;5040715;28;20192;-60
2021/03/10 20:34:53;;;;;;;3.40;0.70;;;;;;;;;;5040323;28;20188;-60
2021/03/10 20:37:19;;;;;;;5.43;0.27;;;;;;;;;;5039421;28;20273;-59
2021/03/10 20:39:46;;;;;;;3.63;0.93;;;;;;;;;;5040180;28;20191;-59
2021/03/10 20:42:13;;;;;;;0.00;0.00;;;;;;;;;;5040897;28;20216;-60
2021/03/10 20:44:39;;;;;;;0.03;0.03;;;;;;;;;;5040282;28;20187;-60
2021/03/10 20:47:06;;;;;;;0.00;0.00;;;;;;;;;;5040355;28;20883;-60
2021/03/10 20:49:32;;;;;;;0.00;0.00;;;;;;;;;;5039462;28;20466;-60
2021/03/10 20:51:59;;;;;;;3.60;0.20;;;;;;;;;;5039378;28;20226;-60
2021/03/10 20:54:27;;;;;;;10.53;1.80;;;;;;;;;;5039933;28;20225;-60
2021/03/10 20:56:53;;;;;;;2.30;0.30;;;;;;;;;;5039374;28;20207;-60
2021/03/10 20:59:20;;;;;;;0.00;0.00;;;;;;;;;;5036342;28;20215;-59
2021/03/10 21:01:46;;;;;;;0.20;0.17;;;;;;;;;;5039628;28;20199;-60
2021/03/10 21:04:13;;;;;;;0.00;0.00;;;;;;;;;;5038845;28;20190;-60
2021/03/10 21:06:39;;;;;;;0.10;0.10;;;;;;;;;;5038651;28;20575;-60
2021/03/10 21:09:07;;;;;;;2.33;0.10;;;;;;;;;;5039550;28;20196;-60
2021/03/10 21:11:35;;;;;;;1.13;0.50;;;;;;;;;;5039441;28;20188;-60
2021/03/10 21:14:02;;;;;;;0.37;0.33;;;;;;;;;;5039247;28;20219;-60
2021/03/10 21:16:29;;;;;;;4.03;1.27;;;;;;;;;;5039163;28;20634;-60
2021/03/10 21:18:55;;;;;;;0.60;0.60;;;;;;;;;;5039373;28;20214;-60
2021/03/10 21:21:22;;;;;;;0.00;0.00;;;;;;;;;;5039221;28;20219;-60
2021/03/10 21:23:49;;;;;;;1.17;1.07;;;;;;;;;;5038532;28;20650;-60
2021/03/10 21:26:16;;;;;;;0.13;0.03;;;;;;;;;;5038867;28;20306;-60
2021/03/10 21:28:43;;;;;;;22.37;0.93;;;;;;;;;;5034483;28;20294;-60
2021/03/10 21:31:10;;;;;;;2.67;0.10;;;;;;;;;;5039369;28;20696;-61
2021/03/10 21:33:37;;;;;;;0.00;0.00;;;;;;;;;;5039250;28;20191;-61
2021/03/10 21:36:03;;;;;;;3.80;0.73;;;;;;;;;;5038281;28;20285;-59
2021/03/10 21:38:30;;;;;;;0.00;0.00;;;;;;;;;;5039634;28;20534;-60
2021/03/10 21:40:56;;;;;;;0.00;0.00;;;;;;;;;;5038694;28;20198;-60
2021/03/10 21:43:23;;;;;;;0.87;0.73;;;;;;;;;;5038612;28;20416;-59
2021/03/10 21:45:50;;;;;;;0.13;0.13;;;;;;;;;;5038847;28;20192;-60
2021/03/10 21:48:16;;;;;;;0.73;0.37;;;;;;;;;;5037117;28;20231;-60
2021/03/10 21:50:43;;;;;;;0.37;0.10;;;;;;;;;;5037742;28;20190;-60
2021/03/10 21:53:09;;;;;;;0.97;0.40;;;;;;;;;;5034350;28;20189;-60
2021/03/10 21:55:36;;;;;;;0.00;0.00;;;;;;;;;;5029107;28;20187;-60
2021/03/10 21:58:04;;;;;;;4.23;0.87;;;;;;;;;;5028132;28;20245;-59